createdAt,value
2022-12-24T00:01:20.468Z,100409.53
2022-12-24T00:03:22.334Z,100410.50
2022-12-24T00:05:24.640Z,100415.69
2022-12-24T00:07:26.548Z,100420.97
2022-12-24T00:09:28.297Z,100420.91
2022-12-24T00:11:30.086Z,100438.16
2022-12-24T00:13:32.010Z,100425.31
2022-12-24T00:15:33.923Z,100439.09
2022-12-24T00:17:35.856Z,100443.44
2022-12-24T00:19:37.766Z,100443.53
2022-12-24T00:21:39.659Z,100433.91
2022-12-24T00:23:41.830Z,100447.59
2022-12-24T00:25:44.312Z,100443.28
2022-12-24T00:27:46.251Z,100445.78
2022-12-24T00:29:48.020Z,100439.75
2022-12-24T00:31:49.806Z,100442.50
2022-12-24T00:33:52.453Z,100456.00
2022-12-24T00:35:54.266Z,100452.75
2022-12-24T00:37:56.211Z,100459.56
2022-12-24T00:39:58.179Z,100462.91
2022-12-24T00:42:00.048Z,100455.28
2022-12-24T00:44:10.084Z,100451.91
2022-12-24T00:46:11.895Z,100477.41
2022-12-24T00:48:13.609Z,100456.06
2022-12-24T00:50:15.587Z,100461.22
2022-12-24T00:52:17.328Z,100467.19
2022-12-24T00:54:19.105Z,100475.75
2022-12-24T00:56:21.547Z,100473.97
2022-12-24T00:58:23.299Z,100465.63
2022-12-24T01:00:25.108Z,100465.50
2022-12-24T01:02:27.245Z,100469.94
2022-12-24T01:04:38.329Z,100481.03
2022-12-24T01:06:40.153Z,100482.03
2022-12-24T01:08:42.547Z,100484.47
2022-12-24T01:10:44.204Z,100496.31
2022-12-24T01:12:46.638Z,100493.94
2022-12-24T01:14:48.308Z,100491.41
2022-12-24T01:16:49.979Z,100486.16
2022-12-24T01:18:51.663Z,100496.63
2022-12-24T01:21:02.637Z,100494.97
2022-12-24T01:23:04.314Z,100505.09
2022-12-24T01:25:06.857Z,100512.13
2022-12-24T01:27:08.543Z,100495.84
2022-12-24T01:29:10.330Z,100509.56
2022-12-24T01:31:14.201Z,100505.19
2022-12-24T01:33:15.921Z,100508.50
2022-12-24T01:35:17.945Z,100503.53
2022-12-24T01:37:19.696Z,100510.38
2022-12-24T01:39:21.530Z,100512.19
2022-12-24T01:41:33.540Z,100517.31
2022-12-24T01:43:35.242Z,100519.84
2022-12-24T01:45:44.510Z,100518.16
2022-12-24T01:47:46.594Z,100521.53
2022-12-24T01:49:54.113Z,100532.53
2022-12-24T01:52:07.240Z,100526.50
2022-12-24T01:54:21.295Z,100528.31
2022-12-24T01:56:24.120Z,100531.81
2022-12-24T01:58:27.163Z,100542.06
2022-12-24T02:00:29.574Z,100536.13
2022-12-24T02:02:33.600Z,100539.56
2022-12-24T02:04:42.628Z,100538.53
2022-12-24T02:06:44.314Z,100551.41
2022-12-24T02:08:46.081Z,100553.88
2022-12-24T02:10:50.277Z,100547.91
2022-12-24T02:12:52.809Z,100546.22
2022-12-24T02:14:55.064Z,100560.78
2022-12-24T02:17:01.178Z,100552.97
2022-12-24T02:19:24.330Z,100555.53
2022-12-24T02:21:39.733Z,100551.88
2022-12-24T02:23:46.122Z,100557.19
2022-12-24T02:25:52.312Z,100555.47
2022-12-24T02:28:00.469Z,100560.72
2022-12-24T02:30:15.194Z,100567.31
2022-12-24T02:32:25.338Z,100560.66
2022-12-24T02:34:30.676Z,100565.81
2022-12-24T02:36:40.834Z,100566.59
2022-12-24T02:38:50.635Z,100565.66
2022-12-24T02:41:01.192Z,100559.72
2022-12-24T02:43:10.932Z,100555.50
2022-12-24T02:45:16.993Z,100551.31
2022-12-24T02:47:21.999Z,100554.75
2022-12-24T02:49:23.667Z,100558.91
2022-12-24T02:51:25.661Z,100562.47
2022-12-24T02:53:27.342Z,100570.06
2022-12-24T02:55:45.401Z,100569.22
2022-12-24T02:58:06.519Z,100566.56
2022-12-24T03:00:12.038Z,100557.03
2022-12-24T03:02:26.825Z,100565.69
2022-12-24T03:04:44.393Z,100578.34
2022-12-24T03:06:56.632Z,100578.34
2022-12-24T03:09:06.365Z,100585.28
2022-12-24T03:11:11.190Z,100587.03
2022-12-24T03:13:18.084Z,100583.31
2022-12-24T03:15:24.091Z,100576.63
2022-12-24T03:17:28.856Z,100587.41
2022-12-24T03:19:31.699Z,100584.16
2022-12-24T03:21:36.662Z,100585.84
2022-12-24T03:23:38.507Z,100576.44
2022-12-24T03:25:42.676Z,100585.09
2022-12-24T03:27:45.254Z,100581.56
2022-12-24T03:29:47.325Z,100581.47
2022-12-24T03:31:51.749Z,100579.69
2022-12-24T03:33:53.576Z,100578.81
2022-12-24T03:35:55.295Z,100581.38
2022-12-24T03:37:56.972Z,100589.84
2022-12-24T03:39:58.780Z,100581.38
2022-12-24T03:42:00.843Z,100576.09
2022-12-24T03:44:03.364Z,100583.00
2022-12-24T03:46:07.231Z,100588.97
2022-12-24T03:48:09.327Z,100595.06
2022-12-24T03:50:11.346Z,100603.66
2022-12-24T03:52:13.283Z,100601.91
2022-12-24T03:54:15.195Z,100603.63
2022-12-24T03:56:17.147Z,100600.22
2022-12-24T03:58:19.030Z,100594.25
2022-12-24T04:00:21.571Z,100586.34
2022-12-24T04:02:23.585Z,100583.78
2022-12-24T04:04:25.693Z,100579.38
2022-12-24T04:06:27.932Z,100584.53
2022-12-24T04:08:30.015Z,100591.41
2022-12-24T04:10:32.004Z,100598.00
2022-12-24T04:12:33.977Z,100596.25
2022-12-24T04:14:35.912Z,100600.66
2022-12-24T04:16:37.824Z,100612.69
2022-12-24T04:18:40.851Z,100602.34
2022-12-24T04:20:42.750Z,100608.34
2022-12-24T04:22:44.706Z,100612.72
2022-12-24T04:24:47.197Z,100613.91
2022-12-24T04:26:49.133Z,100634.34
2022-12-24T04:28:51.051Z,100639.72
2022-12-24T04:30:57.774Z,100643.06
2022-12-24T04:32:59.690Z,100636.09
2022-12-24T04:35:01.788Z,100643.06
2022-12-24T04:37:04.158Z,100646.56
2022-12-24T04:39:06.099Z,100650.84
2022-12-24T04:41:14.755Z,100641.38
2022-12-24T04:43:20.981Z,100647.56
2022-12-24T04:45:22.955Z,100642.47
2022-12-24T04:47:24.946Z,100648.41
2022-12-24T04:49:26.923Z,100648.16
2022-12-24T04:51:29.088Z,100651.81
2022-12-24T04:53:31.922Z,100650.84
2022-12-24T04:55:33.863Z,100650.09
2022-12-24T04:57:37.964Z,100656.81
2022-12-24T04:59:39.949Z,100660.44
2022-12-24T05:01:42.032Z,100658.69
2022-12-24T05:03:44.062Z,100666.22
2022-12-24T05:05:46.273Z,100668.66
2022-12-24T05:07:48.183Z,100672.06
2022-12-24T05:09:50.327Z,100677.84
2022-12-24T05:11:52.372Z,100679.75
2022-12-24T05:13:54.391Z,100673.66
2022-12-24T05:15:57.018Z,100677.19
2022-12-24T05:17:58.948Z,100681.41
2022-12-24T05:20:00.918Z,100677.84
2022-12-24T05:22:05.992Z,100677.94
2022-12-24T05:24:11.393Z,100682.31
2022-12-24T05:26:21.147Z,100688.22
2022-12-24T05:28:23.204Z,100695.78
2022-12-24T05:30:25.134Z,100694.97
2022-12-24T05:32:27.549Z,100688.13
2022-12-24T05:34:29.595Z,100685.66
2022-12-24T05:36:31.632Z,100695.06
2022-12-24T05:38:33.602Z,100695.06
2022-12-24T05:40:35.524Z,100692.53
2022-12-24T05:42:37.504Z,100688.25
2022-12-24T05:44:39.446Z,100692.47
2022-12-24T05:46:41.567Z,100689.91
2022-12-24T05:48:43.531Z,100695.09
2022-12-24T05:50:45.416Z,100692.63
2022-12-24T05:52:47.291Z,100696.63
2022-12-24T05:54:49.253Z,100706.84
2022-12-24T05:56:51.231Z,100705.97
2022-12-24T05:58:54.856Z,100719.59
2022-12-24T06:00:57.051Z,100728.22
2022-12-24T06:02:58.983Z,100733.50
2022-12-24T06:05:01.039Z,100733.28
2022-12-24T06:07:03.146Z,100736.84
2022-12-24T06:09:05.179Z,100736.81
2022-12-24T06:11:10.911Z,100733.19
2022-12-24T06:13:12.858Z,100733.19
2022-12-24T06:15:21.929Z,100734.94
2022-12-24T06:17:25.842Z,100741.81
2022-12-24T06:19:28.037Z,100739.13
2022-12-24T06:21:29.997Z,100743.44
2022-12-24T06:23:34.242Z,100746.97
2022-12-24T06:25:36.173Z,100735.09
2022-12-24T06:27:38.171Z,100744.50
2022-12-24T06:29:40.100Z,100742.72
2022-12-24T06:31:42.136Z,100749.63
2022-12-24T06:33:44.246Z,100750.41
2022-12-24T06:35:46.945Z,100748.66
2022-12-24T06:37:48.837Z,100750.34
2022-12-24T06:39:50.835Z,100749.41
2022-12-24T06:41:52.890Z,100753.47
2022-12-24T06:43:54.987Z,100754.63
2022-12-24T06:45:57.155Z,100753.69
2022-12-24T06:47:59.569Z,100760.56
2022-12-24T06:50:01.959Z,100769.91
2022-12-24T06:52:04.364Z,100772.56
2022-12-24T06:54:06.265Z,100773.34
2022-12-24T06:56:10.992Z,100770.91
2022-12-24T06:58:12.991Z,100779.44
2022-12-24T07:00:15.500Z,100783.66
2022-12-24T07:02:17.475Z,100798.19
2022-12-24T07:04:20.609Z,100797.34
2022-12-24T07:06:27.202Z,100807.47
2022-12-24T07:08:29.182Z,100799.78
2022-12-24T07:10:31.100Z,100807.63
2022-12-24T07:12:33.194Z,100803.69
2022-12-24T07:14:35.376Z,100803.75
2022-12-24T07:16:37.370Z,100818.56
2022-12-24T07:18:39.508Z,100809.91
2022-12-24T07:20:42.994Z,100815.81
2022-12-24T07:22:44.959Z,100808.97
2022-12-24T07:24:47.004Z,100815.13
2022-12-24T07:26:48.946Z,100808.78
2022-12-24T07:28:50.894Z,100821.06
2022-12-24T07:30:52.899Z,100816.59
2022-12-24T07:32:54.977Z,100817.41
2022-12-24T07:34:56.951Z,100813.13
2022-12-24T07:36:58.975Z,100815.53
2022-12-24T07:39:00.973Z,100833.69
2022-12-24T07:41:02.882Z,100831.13
2022-12-24T07:43:04.955Z,100833.06
2022-12-24T07:45:07.850Z,100835.50
2022-12-24T07:47:09.838Z,100834.44
2022-12-24T07:49:12.048Z,100833.75
2022-12-24T07:51:14.119Z,100843.09
2022-12-24T07:53:16.011Z,100843.88
2022-12-24T07:55:18.211Z,100835.16
2022-12-24T07:57:20.197Z,100841.88
2022-12-24T07:59:22.238Z,100847.97
2022-12-24T08:01:24.364Z,100848.72
2022-12-24T08:03:27.877Z,100849.66
2022-12-24T08:05:35.011Z,100844.53
2022-12-24T08:07:36.977Z,100847.84
2022-12-24T08:09:39.796Z,100847.03
2022-12-24T08:11:47.998Z,100854.63
2022-12-24T08:13:53.636Z,100864.25
2022-12-24T08:15:55.844Z,100870.84
2022-12-24T08:17:57.770Z,100858.84
2022-12-24T08:19:59.749Z,100866.47
2022-12-24T08:22:01.667Z,100856.34
2022-12-24T08:24:04.075Z,100861.63
2022-12-24T08:26:08.559Z,100853.97
2022-12-24T08:28:11.004Z,100864.16
2022-12-24T08:30:18.988Z,100861.69
2022-12-24T08:32:23.071Z,100865.06
2022-12-24T08:34:24.985Z,100869.31
2022-12-24T08:36:26.988Z,100868.44
2022-12-24T08:38:29.378Z,100875.34
2022-12-24T08:40:31.395Z,100885.50
2022-12-24T08:42:33.412Z,100883.88
2022-12-24T08:44:35.369Z,100895.63
2022-12-24T08:46:37.695Z,100896.72
2022-12-24T08:48:39.687Z,100905.25
2022-12-24T08:50:42.976Z,100907.56
2022-12-24T08:52:44.941Z,100898.19
2022-12-24T08:54:47.076Z,100898.28
2022-12-24T08:56:49.085Z,100894.84
2022-12-24T08:58:51.086Z,100889.66
2022-12-24T09:00:53.071Z,100891.97
2022-12-24T09:02:56.833Z,100889.13
2022-12-24T09:04:58.924Z,100883.03
2022-12-24T09:07:00.881Z,100892.53
2022-12-24T09:09:04.148Z,100889.94
2022-12-24T09:11:08.249Z,100885.84
2022-12-24T09:13:10.165Z,100883.41
2022-12-24T09:15:12.303Z,100888.94
2022-12-24T09:17:14.218Z,100892.53
2022-12-24T09:19:16.117Z,100895.88
2022-12-24T09:21:18.923Z,100899.22
2022-12-24T09:23:20.945Z,100889.41
2022-12-24T09:25:22.910Z,100891.78
2022-12-24T09:27:24.882Z,100884.25
2022-12-24T09:29:26.821Z,100887.03
2022-12-24T09:31:29.302Z,100889.53
2022-12-24T09:33:34.085Z,100881.88
2022-12-24T09:35:38.589Z,100893.84
2022-12-24T09:37:40.568Z,100891.25
2022-12-24T09:39:42.539Z,100885.09
2022-12-24T09:41:51.380Z,100879.44
2022-12-24T09:44:00.060Z,100884.59
2022-12-24T09:46:07.791Z,100890.88
2022-12-24T09:48:15.590Z,100897.59
2022-12-24T09:50:23.901Z,100896.88
2022-12-24T09:52:33.297Z,100898.66
2022-12-24T09:54:47.754Z,100902.13
2022-12-24T09:56:54.303Z,100914.13
2022-12-24T09:59:01.727Z,100923.31
2022-12-24T10:01:03.997Z,100918.22
2022-12-24T10:03:15.905Z,100916.47
2022-12-24T10:05:23.587Z,100920.00
2022-12-24T10:07:27.273Z,100920.91
2022-12-24T10:09:32.699Z,100918.13
2022-12-24T10:11:40.830Z,100920.00
2022-12-24T10:13:46.227Z,100918.38
2022-12-24T10:15:56.561Z,100915.00
2022-12-24T10:18:04.654Z,100915.88
2022-12-24T10:20:12.848Z,100919.59
2022-12-24T10:22:21.051Z,100922.94
2022-12-24T10:24:29.183Z,100929.88
2022-12-24T10:26:41.267Z,100913.00
2022-12-24T10:28:46.803Z,100922.50
2022-12-24T10:30:58.637Z,100920.81
2022-12-24T10:33:01.049Z,100920.94
2022-12-24T10:35:17.628Z,100917.69
2022-12-24T10:37:23.975Z,100918.53
2022-12-24T10:39:27.427Z,100913.31
2022-12-24T10:41:32.796Z,100915.94
2022-12-24T10:43:36.185Z,100921.13
2022-12-24T10:45:41.894Z,100924.56
2022-12-24T10:47:47.868Z,100921.31
2022-12-24T10:50:01.951Z,100921.41
2022-12-24T10:52:07.263Z,100922.25
2022-12-24T10:54:19.515Z,100920.69
2022-12-24T10:56:24.780Z,100923.09
2022-12-24T10:58:26.728Z,100921.56
2022-12-24T11:00:35.508Z,100919.09
2022-12-24T11:02:39.317Z,100905.41
2022-12-24T11:04:49.752Z,100908.13
2022-12-24T11:06:58.043Z,100913.97
2022-12-24T11:09:21.007Z,100910.72
2022-12-24T11:11:23.711Z,100922.91
2022-12-24T11:13:39.508Z,100922.78
2022-12-24T11:15:41.846Z,100913.13
2022-12-24T11:17:56.101Z,100919.41
2022-12-24T11:19:58.754Z,100923.69
2022-12-24T11:22:05.958Z,100916.78
2022-12-24T11:24:14.155Z,100927.03
2022-12-24T11:26:22.141Z,100938.09
2022-12-24T11:28:26.117Z,100947.66
2022-12-24T11:30:32.437Z,100934.06
2022-12-24T11:32:34.387Z,100939.09
2022-12-24T11:34:36.352Z,100938.47
2022-12-24T11:36:38.357Z,100941.00
2022-12-24T11:38:40.455Z,100940.13
2022-12-24T11:40:45.215Z,100932.47
2022-12-24T11:42:47.899Z,100929.00
2022-12-24T11:44:51.379Z,100933.47
2022-12-24T11:46:57.263Z,100929.09
2022-12-24T11:49:07.985Z,100929.19
2022-12-24T11:51:16.625Z,100933.63
2022-12-24T11:53:24.351Z,100933.63
2022-12-24T11:55:32.576Z,100939.81
2022-12-24T11:57:48.711Z,100940.63
2022-12-24T11:59:52.307Z,100927.78
2022-12-24T12:01:59.033Z,100927.81
2022-12-24T12:04:05.764Z,100923.69
2022-12-24T12:06:17.634Z,100931.53
2022-12-24T12:08:22.965Z,100928.09
2022-12-24T12:10:30.529Z,100924.03
2022-12-24T12:12:37.918Z,100919.47
2022-12-24T12:14:44.741Z,100932.47
2022-12-24T12:16:59.239Z,100917.09
2022-12-24T12:19:11.485Z,100924.00
2022-12-24T12:21:22.471Z,100930.88
2022-12-24T12:23:26.719Z,100942.97
2022-12-24T12:25:34.902Z,100935.28
2022-12-24T12:27:43.664Z,100927.53
2022-12-24T12:29:52.389Z,100924.06
2022-12-24T12:32:00.281Z,100918.13
2022-12-24T12:34:11.279Z,100919.97
2022-12-24T12:36:18.128Z,100915.56
2022-12-24T12:38:23.613Z,100908.66
2022-12-24T12:40:34.056Z,100900.06
2022-12-24T12:42:39.825Z,100912.19
2022-12-24T12:44:48.094Z,100908.84
2022-12-24T12:46:53.585Z,100910.59
2022-12-24T12:49:02.562Z,100907.22
2022-12-24T12:51:10.255Z,100900.47
2022-12-24T12:53:15.700Z,100899.66
2022-12-24T12:55:24.689Z,100891.09
2022-12-24T12:57:33.186Z,100894.56
2022-12-24T12:59:41.397Z,100887.91
2022-12-24T13:01:51.425Z,100892.19
2022-12-24T13:04:05.552Z,100889.44
2022-12-24T13:06:13.765Z,100887.00
2022-12-24T13:08:19.256Z,100887.25
2022-12-24T13:10:25.603Z,100892.44
2022-12-24T13:12:33.779Z,100888.91
2022-12-24T13:14:42.115Z,100882.94
2022-12-24T13:17:01.681Z,100897.78
2022-12-24T13:19:09.866Z,100901.34
2022-12-24T13:21:18.433Z,100899.66
2022-12-24T13:23:23.152Z,100898.03
2022-12-24T13:25:29.566Z,100906.75
2022-12-24T13:27:34.677Z,100891.34
2022-12-24T13:29:37.383Z,100895.66
2022-12-24T13:31:39.444Z,100893.19
2022-12-24T13:33:42.242Z,100894.94
2022-12-24T13:35:50.739Z,100888.03
2022-12-24T13:37:52.747Z,100886.38
2022-12-24T13:40:00.986Z,100885.53
2022-12-24T13:42:02.954Z,100886.41
2022-12-24T13:44:11.210Z,100886.31
2022-12-24T13:46:36.199Z,100887.28
2022-12-24T13:48:38.380Z,100881.28
2022-12-24T13:50:47.178Z,100888.91
2022-12-24T13:52:53.650Z,100891.59
2022-12-24T13:54:57.638Z,100890.69
2022-12-24T13:57:01.526Z,100888.91
2022-12-24T13:59:10.400Z,100891.44
2022-12-24T14:01:18.403Z,100888.16
2022-12-24T14:03:27.214Z,100894.09
2022-12-24T14:05:35.431Z,100888.88
2022-12-24T14:07:37.819Z,100897.69
2022-12-24T14:09:50.102Z,100901.03
2022-12-24T14:11:58.187Z,100904.25
2022-12-24T14:14:04.645Z,100895.75
2022-12-24T14:16:12.382Z,100900.09
2022-12-24T14:18:19.069Z,100895.84
2022-12-24T14:20:22.305Z,100893.06
2022-12-24T14:22:28.818Z,100891.47
2022-12-24T14:24:37.335Z,100881.22
2022-12-24T14:26:48.369Z,100886.38
2022-12-24T14:28:59.612Z,100889.81
2022-12-24T14:31:03.561Z,100885.44
2022-12-24T14:33:05.533Z,100881.16
2022-12-24T14:35:09.512Z,100891.53
2022-12-24T14:37:13.973Z,100880.41
2022-12-24T14:39:24.972Z,100883.78
2022-12-24T14:41:33.151Z,100885.53
2022-12-24T14:43:38.606Z,100880.50
2022-12-24T14:45:47.019Z,100881.28
2022-12-24T14:47:54.912Z,100878.66
2022-12-24T14:50:00.282Z,100873.66
2022-12-24T14:52:37.851Z,100877.13
2022-12-24T14:54:41.568Z,100880.38
2022-12-24T14:56:43.611Z,100866.81
2022-12-24T14:58:46.991Z,100873.53
2022-12-24T15:00:50.348Z,100866.84
2022-12-24T15:02:52.911Z,100863.50
2022-12-24T15:05:01.215Z,100873.75
2022-12-24T15:07:05.331Z,100876.31
2022-12-24T15:09:18.274Z,100870.31
2022-12-24T15:11:22.491Z,100871.13
2022-12-24T15:13:35.271Z,100877.19
2022-12-24T15:15:38.558Z,100872.97
2022-12-24T15:17:40.907Z,100878.16
2022-12-24T15:19:47.510Z,100875.53
2022-12-24T15:21:50.104Z,100863.44
2022-12-24T15:23:52.810Z,100871.28
2022-12-24T15:26:01.041Z,100873.06
2022-12-24T15:28:03.064Z,100869.56
2022-12-24T15:30:14.476Z,100873.06
2022-12-24T15:32:18.773Z,100871.28
2022-12-24T15:34:26.187Z,100868.69
2022-12-24T15:36:31.770Z,100863.38
2022-12-24T15:38:37.954Z,100865.13
2022-12-24T15:40:40.137Z,100862.59
2022-12-24T15:42:43.229Z,100869.47
2022-12-24T15:44:57.170Z,100858.34
2022-12-24T15:47:01.329Z,100861.78
2022-12-24T15:49:03.702Z,100861.81
2022-12-24T15:51:06.574Z,100847.94
2022-12-24T15:53:20.514Z,100845.47
2022-12-24T15:55:28.737Z,100848.78
2022-12-24T15:57:33.501Z,100848.63
2022-12-24T15:59:36.538Z,100849.63
2022-12-24T16:01:38.646Z,100837.53
2022-12-24T16:03:54.383Z,100836.72
2022-12-24T16:06:00.733Z,100841.00
2022-12-24T16:08:07.383Z,100842.78
2022-12-24T16:10:25.139Z,100836.78
2022-12-24T16:12:27.244Z,100825.56
2022-12-24T16:14:31.337Z,100820.34
2022-12-24T16:16:37.982Z,100817.72
2022-12-24T16:18:44.464Z,100823.84
2022-12-24T16:20:49.962Z,100821.31
2022-12-24T16:22:52.541Z,100821.25
2022-12-24T16:24:55.876Z,100817.78
2022-12-24T16:26:58.352Z,100820.38
2022-12-24T16:29:00.671Z,100822.16
2022-12-24T16:31:02.841Z,100820.22
2022-12-24T16:33:04.884Z,100817.69
2022-12-24T16:35:18.071Z,100829.78
2022-12-24T16:37:20.029Z,100832.19
2022-12-24T16:39:26.902Z,100832.38
2022-12-24T16:41:28.804Z,100830.56
2022-12-24T16:43:33.848Z,100840.97
2022-12-24T16:45:37.319Z,100835.72
2022-12-24T16:47:43.366Z,100836.63
2022-12-24T16:49:45.774Z,100832.22
2022-12-24T16:51:47.954Z,100837.38
2022-12-24T16:53:49.934Z,100837.25
2022-12-24T16:55:53.538Z,100841.50
2022-12-24T16:57:56.653Z,100854.41
2022-12-24T16:59:58.649Z,100855.16
2022-12-24T17:02:00.774Z,100852.59
2022-12-24T17:04:03.004Z,100849.00
2022-12-24T17:06:06.362Z,100852.47
2022-12-24T17:08:08.946Z,100854.22
2022-12-24T17:10:13.981Z,100856.66
2022-12-24T17:12:16.418Z,100849.09
2022-12-24T17:14:20.872Z,100851.66
2022-12-24T17:16:23.094Z,100855.84
2022-12-24T17:18:25.102Z,100858.59
2022-12-24T17:20:27.053Z,100852.41
2022-12-24T17:22:29.316Z,100855.00
2022-12-24T17:24:31.790Z,100860.91
2022-12-24T17:26:33.896Z,100839.44
2022-12-24T17:28:35.979Z,100837.44
2022-12-24T17:30:40.402Z,100835.88
2022-12-24T17:32:42.557Z,100835.94
2022-12-24T17:34:44.765Z,100836.13
2022-12-24T17:36:47.005Z,100835.34
2022-12-24T17:38:49.436Z,100829.47
2022-12-24T17:40:51.465Z,100812.28
2022-12-24T17:42:53.469Z,100820.75
2022-12-24T17:44:56.674Z,100823.41
2022-12-24T17:46:58.824Z,100825.09
2022-12-24T17:49:00.975Z,100819.97
2022-12-24T17:51:05.812Z,100810.59
2022-12-24T17:53:07.909Z,100814.91
2022-12-24T17:55:10.191Z,100820.00
2022-12-24T17:57:12.244Z,100818.25
2022-12-24T17:59:14.591Z,100827.81
2022-12-24T18:01:21.060Z,100829.53
2022-12-24T18:03:24.432Z,100828.66
2022-12-24T18:05:26.497Z,100832.13
2022-12-24T18:07:28.380Z,100838.97
2022-12-24T18:09:30.921Z,100840.69
2022-12-24T18:11:35.722Z,100837.28
2022-12-24T18:13:37.728Z,100843.19
2022-12-24T18:15:40.508Z,100844.06
2022-12-24T18:17:42.453Z,100850.03
2022-12-24T18:19:44.419Z,100845.72
2022-12-24T18:21:46.355Z,100839.88
2022-12-24T18:23:50.577Z,100844.13
2022-12-24T18:25:53.070Z,100836.34
2022-12-24T18:27:55.151Z,100831.16
2022-12-24T18:29:57.222Z,100831.16
2022-12-24T18:31:59.275Z,100826.75
2022-12-24T18:34:03.000Z,100820.72
2022-12-24T18:36:06.120Z,100815.75
2022-12-24T18:38:08.172Z,100822.63
2022-12-24T18:40:10.636Z,100810.53
2022-12-24T18:42:14.818Z,100802.00
2022-12-24T18:44:22.560Z,100788.31
2022-12-24T18:46:29.412Z,100790.03
2022-12-24T18:48:31.489Z,100793.44
2022-12-24T18:50:33.491Z,100792.41
2022-12-24T18:52:35.586Z,100799.28
2022-12-24T18:54:38.991Z,100805.06
2022-12-24T18:56:40.947Z,100801.66
2022-12-24T19:01:01.921Z,100791.81
2022-12-24T19:03:04.752Z,100803.91
2022-12-24T19:05:08.111Z,100795.16
2022-12-24T19:07:10.003Z,100797.91
2022-12-24T19:09:12.045Z,100793.59
2022-12-24T19:11:14.167Z,100804.69
2022-12-24T19:13:16.175Z,100799.69
2022-12-24T19:15:18.632Z,100796.28
2022-12-24T19:17:20.580Z,100787.78
2022-12-24T19:19:24.210Z,100784.41
2022-12-24T19:21:26.524Z,100793.84
2022-12-24T19:23:28.579Z,100795.66
2022-12-24T19:25:30.649Z,100794.91
2022-12-24T19:27:32.648Z,100798.31
2022-12-24T19:29:34.672Z,100793.03
2022-12-24T19:31:36.734Z,100801.59
2022-12-24T19:33:43.140Z,100808.50
2022-12-24T19:35:45.566Z,100805.06
2022-12-24T19:37:47.569Z,100806.94
2022-12-24T19:39:49.480Z,100800.91
2022-12-24T19:41:52.213Z,100805.25
2022-12-24T19:43:56.868Z,100799.22
2022-12-24T19:45:59.016Z,100804.50
2022-12-24T19:48:01.045Z,100798.41
2022-12-24T19:50:03.389Z,100800.13
2022-12-24T19:52:05.361Z,100795.00
2022-12-24T19:54:13.315Z,100790.78
2022-12-24T19:56:20.705Z,100793.16
2022-12-24T19:58:22.771Z,100790.81
2022-12-24T20:00:24.925Z,100787.41
2022-12-24T20:02:26.986Z,100780.50
2022-12-24T20:04:29.065Z,100779.50
2022-12-24T20:06:35.481Z,100776.91
2022-12-24T20:08:38.253Z,100768.44
2022-12-24T20:10:42.000Z,100765.78
2022-12-24T20:12:43.918Z,100755.47
2022-12-24T20:14:45.884Z,100748.59
2022-12-24T20:16:48.004Z,100754.53
2022-12-24T20:18:54.462Z,100756.31
2022-12-24T20:21:00.108Z,100757.81
2022-12-24T20:23:02.410Z,100755.38
2022-12-24T20:25:04.807Z,100767.44
2022-12-24T20:27:06.812Z,100769.16
2022-12-24T20:29:11.066Z,100766.66
2022-12-24T20:31:17.623Z,100765.00
2022-12-24T20:33:20.129Z,100774.50
2022-12-24T20:35:22.727Z,100779.53
2022-12-24T20:37:24.664Z,100782.75
2022-12-24T20:39:26.694Z,100775.00
2022-12-24T20:41:30.046Z,100781.81
2022-12-24T20:43:37.324Z,100776.50
2022-12-24T20:45:49.490Z,100781.78
2022-12-24T20:47:51.502Z,100779.25
2022-12-24T20:49:53.432Z,100781.88
2022-12-24T20:51:55.489Z,100781.59
2022-12-24T20:53:59.827Z,100793.09
2022-12-24T20:56:02.233Z,100794.72
2022-12-24T20:58:04.768Z,100796.41
2022-12-24T21:00:07.900Z,100787.03
2022-12-24T21:02:12.929Z,100798.25
2022-12-24T21:04:16.102Z,100805.94
2022-12-24T21:06:22.753Z,100803.47
2022-12-24T21:08:24.656Z,100799.28
2022-12-24T21:10:32.312Z,100803.56
2022-12-24T21:12:39.181Z,100801.91
2022-12-24T21:14:41.218Z,100793.41
2022-12-24T21:16:43.568Z,100795.97
2022-12-24T21:18:48.360Z,100801.91
2022-12-24T21:20:50.298Z,100807.81
2022-12-24T21:22:57.233Z,100796.69
2022-12-24T21:25:02.497Z,100807.81
2022-12-24T21:27:04.546Z,100812.13
2022-12-24T21:29:08.368Z,100801.06
2022-12-24T21:31:11.908Z,100790.91
2022-12-24T21:33:13.938Z,100803.66
2022-12-24T21:35:15.984Z,100803.66
2022-12-24T21:37:18.172Z,100808.75
2022-12-24T21:39:20.253Z,100805.25
2022-12-24T21:41:23.823Z,100806.94
2022-12-24T21:43:26.517Z,100802.69
2022-12-24T21:45:29.733Z,100801.84
2022-12-24T21:47:31.868Z,100808.53
2022-12-24T21:49:37.390Z,100805.28
2022-12-24T21:51:39.663Z,100804.41
2022-12-24T21:53:44.677Z,100799.16
2022-12-24T21:55:46.781Z,100800.91
2022-12-24T21:57:51.880Z,100795.78
2022-12-24T21:59:56.672Z,100800.91
2022-12-24T22:01:58.754Z,100815.47
2022-12-24T22:04:00.760Z,100810.31
2022-12-24T22:06:03.411Z,100812.78
2022-12-24T22:08:08.610Z,100816.44
2022-12-24T22:10:15.009Z,100812.28
2022-12-24T22:12:16.946Z,100806.13
2022-12-24T22:14:18.949Z,100797.66
2022-12-24T22:16:20.949Z,100785.50
2022-12-24T22:18:24.999Z,100784.75
2022-12-24T22:20:26.979Z,100787.16
2022-12-24T22:22:28.921Z,100780.34
2022-12-24T22:24:30.856Z,100769.16
2022-12-24T22:26:32.859Z,100777.75
2022-12-24T22:28:34.814Z,100784.56
2022-12-24T22:30:38.617Z,100785.34
2022-12-24T22:32:40.611Z,100788.53
2022-12-24T22:34:42.589Z,100785.22
2022-12-24T22:36:44.774Z,100796.31
2022-12-24T22:38:46.761Z,100790.31
2022-12-24T22:40:48.986Z,100789.63
2022-12-24T22:42:50.927Z,100791.28
2022-12-24T22:44:52.860Z,100793.91
2022-12-24T22:46:54.961Z,100800.88
2022-12-24T22:48:56.944Z,100794.84
2022-12-24T22:50:58.873Z,100794.84
2022-12-24T22:53:00.903Z,100792.47
2022-12-24T22:55:03.874Z,100783.59
2022-12-24T22:57:05.812Z,100789.78
2022-12-24T22:59:07.776Z,100785.69
2022-12-24T23:01:10.660Z,100785.81
2022-12-24T23:03:13.052Z,100798.63
2022-12-24T23:05:15.732Z,100793.50
2022-12-24T23:07:17.746Z,100791.09
2022-12-24T23:09:20.054Z,100775.44
2022-12-24T23:11:22.181Z,100777.31
2022-12-24T23:13:27.211Z,100781.59
2022-12-24T23:15:29.171Z,100778.16
2022-12-24T23:17:31.092Z,100777.31
2022-12-24T23:19:33.758Z,100776.56
2022-12-24T23:21:36.251Z,100779.13
2022-12-24T23:23:38.199Z,100793.56
2022-12-24T23:25:40.164Z,100785.69
2022-12-24T23:27:42.075Z,100796.16
2022-12-24T23:29:43.996Z,100782.56
2022-12-24T23:31:45.946Z,100798.81
2022-12-24T23:33:48.211Z,100780.75
2022-12-24T23:35:50.261Z,100778.16
2022-12-24T23:37:52.174Z,100768.66
2022-12-24T23:39:54.088Z,100771.22
2022-12-24T23:41:56.072Z,100770.41